Time;durP1;ratioP1;P1;durP2;ratioP2;P2;SDS_P1;SDS_P2;PMS_P1;PMS_P2;Temp;Humidity;BMP_temperature;BMP_pressure;BME280_temperature;BME280_humidity;BME280_pressure;Samples;Min_cycle;Max_cycle;Signal;HPM_P1;HPM_P2
2023/07/14 00:00:17;;;;;;;17.40;15.63;;;15.20;99.90;;;;;;5043744;28;20042;-85
2023/07/14 00:02:49;;;;;;;15.80;14.45;;;15.20;99.90;;;;;;5050519;28;20048;-85
2023/07/14 00:05:26;;;;;;;14.40;12.00;;;15.20;99.90;;;;;;5048072;28;20061;-85
2023/07/14 00:07:54;;;;;;;15.57;13.98;;;15.20;99.90;;;;;;5034065;28;20144;-85
2023/07/14 00:10:34;;;;;;;14.60;12.02;;;15.20;99.90;;;;;;5047067;28;20047;-85
2023/07/14 00:13:04;;;;;;;14.27;12.82;;;15.20;99.90;;;;;;5057203;28;20028;-85
2023/07/14 00:15:32;;;;;;;16.38;13.82;;;15.20;99.90;;;;;;5039671;28;20391;-85
2023/07/14 00:18:16;;;;;;;16.55;14.75;;;15.10;99.90;;;;;;5047523;28;20029;-86
2023/07/14 00:20:42;;;;;;;17.40;12.98;;;15.10;99.90;;;;;;5050145;28;20099;-85
2023/07/14 00:23:11;;;;;;;15.13;13.60;;;15.10;99.90;;;;;;5030264;28;20471;-85
2023/07/14 00:25:38;;;;;;;15.93;14.40;;;15.10;99.90;;;;;;5037624;28;20115;-85
2023/07/14 00:28:19;;;;;;;16.98;14.38;;;15.00;99.90;;;;;;5047512;28;20052;-85
2023/07/14 00:30:48;;;;;;;17.05;14.85;;;15.00;99.90;;;;;;5055286;28;21255;-85
2023/07/14 00:33:18;;;;;;;16.27;14.68;;;14.90;99.90;;;;;;5055403;28;20406;-84
2023/07/14 00:35:45;;;;;;;15.77;14.10;;;14.90;99.90;;;;;;5051659;28;20570;-85
2023/07/14 00:38:11;;;;;;;16.23;14.30;;;14.90;99.90;;;;;;5051389;28;20461;-85
2023/07/14 00:40:42;;;;;;;16.23;14.60;;;14.80;99.90;;;;;;5044277;28;20505;-85
2023/07/14 00:43:19;;;;;;;17.85;16.15;;;14.80;99.90;;;;;;5051706;28;20532;-85
2023/07/14 00:45:48;;;;;;;16.63;14.98;;;14.80;99.90;;;;;;5034504;28;20402;-85
2023/07/14 00:48:18;;;;;;;15.93;14.40;;;14.80;99.90;;;;;;5061420;28;20094;-85
2023/07/14 00:50:54;;;;;;;15.48;13.30;;;14.80;99.90;;;;;;5051108;28;20486;-84
2023/07/14 00:53:29;;;;;;;16.55;15.02;;;14.70;99.90;;;;;;5032424;28;20048;-84
2023/07/14 00:55:58;;;;;;;19.20;17.42;;;14.70;99.90;;;;;;5063189;28;20124;-85
2023/07/14 00:58:26;;;;;;;22.17;18.23;;;14.70;99.90;;;;;;5051031;28;20040;-85
2023/07/14 01:01:10;;;;;;;21.85;19.77;;;14.70;99.90;;;;;;5058894;28;20118;-85
2023/07/14 01:03:40;;;;;;;21.42;19.23;;;14.60;99.90;;;;;;5054420;28;20029;-85
2023/07/14 01:06:14;;;;;;;19.10;17.13;;;14.60;99.90;;;;;;5045313;28;20055;-85
2023/07/14 01:08:59;;;;;;;;;;;14.60;99.90;;;;;;5083335;28;20059;-85
2023/07/14 01:11:42;;;;;;;18.10;16.40;;;14.60;99.90;;;;;;5046270;28;19916;-86
2023/07/14 01:14:16;;;;;;;22.55;20.38;;;14.60;99.90;;;;;;5036677;28;20032;-85
2023/07/14 01:16:43;;;;;;;21.33;19.25;;;14.60;99.90;;;;;;5052967;28;20040;-85
2023/07/14 01:19:24;;;;;;;20.65;18.70;;;14.50;99.90;;;;;;5055093;28;20105;-85
2023/07/14 01:21:57;;;;;;;22.00;19.80;;;14.50;99.90;;;;;;5064025;28;20032;-85
2023/07/14 01:24:45;;;;;;;19.95;17.75;;;14.50;99.90;;;;;;5063446;28;20052;-85
2023/07/14 01:27:11;;;;;;;23.13;20.95;;;14.50;99.90;;;;;;5053447;28;20080;-84
2023/07/14 01:29:38;;;;;;;21.40;17.63;;;14.50;99.90;;;;;;5037027;28;20124;-85
2023/07/14 01:32:15;;;;;;;21.67;19.55;;;14.40;99.90;;;;;;5060331;28;20044;-85
2023/07/14 01:34:41;;;;;;;24.20;20.45;;;14.40;99.90;;;;;;5063770;28;20036;-85
2023/07/14 01:37:08;;;;;;;21.35;19.15;;;14.40;99.90;;;;;;5051650;28;20116;-85
2023/07/14 01:39:35;;;;;;;25.05;22.38;;;14.40;99.90;;;;;;5039086;28;20048;-85
2023/07/14 01:42:01;;;;;;;23.25;21.05;;;14.40;99.90;;;;;;5055745;28;20045;-85
2023/07/14 01:44:27;;;;;;;25.92;23.40;;;14.40;99.90;;;;;;5035222;28;20089;-84
2023/07/14 01:46:55;;;;;;;25.08;22.65;;;14.30;99.90;;;;;;5052489;28;20036;-85
2023/07/14 01:49:27;;;;;;;23.92;21.90;;;14.30;99.90;;;;;;5056470;28;20074;-85
2023/07/14 01:51:57;;;;;;;26.48;23.95;;;14.30;99.90;;;;;;5046596;28;20094;-85
2023/07/14 01:54:39;;;;;;;35.03;31.90;;;14.30;99.90;;;;;;5062741;28;20077;-85
2023/07/14 01:57:12;;;;;;;25.50;22.85;;;14.30;99.90;;;;;;5069715;28;20052;-85
2023/07/14 01:59:41;;;;;;;;;;;14.30;99.90;;;;;;5041643;28;20044;-84
2023/07/14 02:02:19;;;;;;;23.67;21.02;;;14.20;99.90;;;;;;5039214;28;20030;-85
2023/07/14 02:04:47;;;;;;;27.30;24.55;;;14.20;99.90;;;;;;5062630;28;20546;-85
2023/07/14 02:07:14;;;;;;;24.42;22.15;;;14.20;99.90;;;;;;5035522;28;20094;-85
2023/07/14 02:09:40;;;;;;;30.27;27.33;;;14.20;99.90;;;;;;5069030;28;20076;-85
2023/07/14 02:12:09;;;;;;;22.27;17.83;;;14.10;99.90;;;;;;5052360;28;20083;-85
2023/07/14 02:14:45;;;;;;;21.85;19.33;;;14.10;99.90;;;;;;5051086;28;20072;-85
2023/07/14 02:17:27;;;;;;;25.85;23.33;;;14.10;99.90;;;;;;5059091;28;20106;-85
2023/07/14 02:19:54;;;;;;;26.42;21.00;;;14.10;99.90;;;;;;5057244;28;20217;-85
2023/07/14 02:22:21;;;;;;;23.80;21.30;;;14.00;99.90;;;;;;5036292;28;20162;-85
2023/07/14 02:24:48;;;;;;;22.92;20.50;;;14.00;99.90;;;;;;5050487;28;20157;-85
2023/07/14 02:27:15;;;;;;;23.80;21.38;;;14.00;99.90;;;;;;5057237;28;20047;-85
2023/07/14 02:29:40;;;;;;;27.52;24.90;;;14.00;99.90;;;;;;5045600;28;20093;-85
2023/07/14 02:32:26;;;;;;;25.83;23.15;;;14.00;99.90;;;;;;5046012;28;20036;-85
2023/07/14 02:34:59;;;;;;;22.60;18.95;;;14.00;99.90;;;;;;5045498;28;20039;-85
2023/07/14 02:38:00;;;;;;;28.58;25.90;;;14.00;99.90;;;;;;5080819;28;20028;-85
2023/07/14 02:40:57;;;;;;;23.15;20.48;;;13.90;99.90;;;;;;5062389;28;20040;-85
2023/07/14 02:43:24;;;;;;;25.48;22.77;;;13.90;99.90;;;;;;5025410;28;20052;-85
2023/07/14 02:45:55;;;;;;;28.63;26.00;;;13.90;99.90;;;;;;5045513;28;20166;-85
2023/07/14 02:48:28;;;;;;;21.83;19.10;;;13.90;99.90;;;;;;5044605;28;20040;-85
2023/07/14 02:50:54;;;;;;;25.75;23.20;;;13.90;99.90;;;;;;5068641;28;20025;-84
2023/07/14 02:53:19;;;;;;;27.92;25.10;;;13.80;99.90;;;;;;5049588;28;20043;-85
2023/07/14 02:55:45;;;;;;;28.45;25.40;;;13.90;99.90;;;;;;5033772;28;20471;-85
2023/07/14 02:58:11;;;;;;;25.33;22.88;;;13.80;99.90;;;;;;5035383;28;20044;-85
2023/07/14 03:00:38;;;;;;;32.50;29.08;;;13.80;99.90;;;;;;5044572;28;20040;-84
2023/07/14 03:03:03;;;;;;;30.35;27.55;;;13.80;99.90;;;;;;5061630;28;20044;-85
2023/07/14 03:05:29;;;;;;;22.65;20.27;;;13.80;99.90;;;;;;5037345;28;20055;-85
2023/07/14 03:07:55;;;;;;;26.75;24.27;;;13.80;99.90;;;;;;5053382;28;20073;-85
2023/07/14 03:10:21;;;;;;;30.98;27.92;;;13.70;99.90;;;;;;5068270;28;20032;-85
2023/07/14 03:12:47;;;;;;;30.60;27.67;;;13.70;99.90;;;;;;5040813;28;20044;-85
2023/07/14 03:15:12;;;;;;;25.75;23.08;;;13.70;99.90;;;;;;5062231;28;20051;-85
2023/07/14 03:17:38;;;;;;;28.15;25.40;;;13.70;99.90;;;;;;5070367;28;20486;-84
2023/07/14 03:20:09;;;;;;;24.80;22.30;;;13.80;99.90;;;;;;5044108;28;20059;-85
2023/07/14 03:22:35;;;;;;;32.45;27.85;;;13.70;99.90;;;;;;5061595;28;20044;-85
2023/07/14 03:25:01;;;;;;;29.30;26.73;;;13.70;99.90;;;;;;5049610;28;20048;-85
2023/07/14 03:27:28;;;;;;;27.17;24.73;;;13.70;99.90;;;;;;5061927;28;20036;-85
2023/07/14 03:29:54;;;;;;;28.35;25.23;;;13.70;99.90;;;;;;5044494;28;20461;-84
2023/07/14 03:32:20;;;;;;;28.35;25.70;;;13.70;99.90;;;;;;5068196;28;20490;-85
2023/07/14 03:34:47;;;;;;;27.85;24.95;;;13.70;99.90;;;;;;5050226;28;20167;-85
2023/07/14 03:37:13;;;;;;;27.73;24.90;;;13.70;99.90;;;;;;5036488;28;20032;-85
2023/07/14 03:39:38;;;;;;;28.77;25.63;;;13.70;99.90;;;;;;5033642;28;20044;-85
2023/07/14 03:42:04;;;;;;;27.85;25.17;;;13.60;99.90;;;;;;5050283;28;20043;-86
2023/07/14 03:44:32;;;;;;;27.33;24.50;;;13.70;99.90;;;;;;5038103;28;20241;-85
2023/07/14 03:46:58;;;;;;;26.52;23.98;;;13.60;99.90;;;;;;5061681;28;20105;-85
2023/07/14 03:49:24;;;;;;;28.02;25.33;;;13.60;99.90;;;;;;5045585;28;20101;-85
2023/07/14 03:51:51;;;;;;;24.50;22.10;;;13.60;99.90;;;;;;5035194;28;20134;-85
2023/07/14 03:54:17;;;;;;;28.00;25.17;;;13.60;99.90;;;;;;5054462;28;20502;-85
2023/07/14 03:56:44;;;;;;;24.10;21.73;;;13.70;99.90;;;;;;5077467;28;20115;-86
2023/07/14 03:59:25;;;;;;;;;;;;;;;;;;;;;
2023/07/14 04:01:51;;;;;;;25.13;22.63;;;13.70;99.90;;;;;;5051373;28;20091;-86
2023/07/14 04:04:19;;;;;;;27.52;24.80;;;13.70;99.90;;;;;;5050964;28;20059;-85
2023/07/14 04:06:45;;;;;;;27.20;24.33;;;13.70;99.90;;;;;;5064258;28;20043;-86
2023/07/14 04:09:11;;;;;;;25.67;23.30;;;13.80;99.90;;;;;;5048788;28;20466;-86
2023/07/14 04:11:37;;;;;;;25.95;22.35;;;13.80;99.90;;;;;;5054944;28;20041;-85
2023/07/14 04:14:04;;;;;;;25.92;22.20;;;13.80;99.90;;;;;;5068104;28;20489;-83
2023/07/14 04:16:30;;;;;;;24.60;19.17;;;13.90;99.90;;;;;;5062312;28;20131;-85
2023/07/14 04:18:56;;;;;;;22.90;20.75;;;13.90;99.90;;;;;;5058334;28;20537;-86
2023/07/14 04:21:24;;;;;;;22.55;19.30;;;14.00;99.90;;;;;;5045955;28;20054;-84
2023/07/14 04:23:51;;;;;;;21.85;17.85;;;14.00;99.90;;;;;;5042879;28;20701;-86
2023/07/14 04:26:17;;;;;;;21.75;19.67;;;14.10;99.90;;;;;;5038560;28;20543;-86
2023/07/14 04:28:43;;;;;;;20.17;17.42;;;14.10;99.90;;;;;;5045607;28;20093;-87
2023/07/14 04:31:09;;;;;;;21.35;19.13;;;14.20;99.90;;;;;;5057538;28;20062;-87
2023/07/14 04:33:35;;;;;;;20.50;18.23;;;14.20;99.90;;;;;;5046064;28;20032;-86
2023/07/14 04:36:00;;;;;;;19.95;17.88;;;14.30;99.90;;;;;;5053963;28;20039;-86
2023/07/14 04:38:26;;;;;;;22.75;16.27;;;14.30;99.90;;;;;;5059434;28;20055;-87
2023/07/14 04:41:01;;;;;;;17.80;15.80;;;14.40;99.90;;;;;;5043666;28;20063;-86
2023/07/14 04:43:31;;;;;;;21.17;19.05;;;14.40;99.90;;;;;;5060581;28;20118;-86
2023/07/14 04:45:57;;;;;;;23.35;18.05;;;14.50;99.90;;;;;;5039135;28;20033;-86
2023/07/14 04:48:23;;;;;;;20.20;14.45;;;14.50;99.90;;;;;;5044869;28;20371;-87
2023/07/14 04:50:49;;;;;;;16.10;14.52;;;14.60;99.90;;;;;;5036803;28;20041;-87
2023/07/14 04:53:15;;;;;;;20.40;18.45;;;14.70;99.90;;;;;;5036685;28;20570;-88
2023/07/14 04:55:43;;;;;;;22.02;15.13;;;14.70;99.90;;;;;;5053283;28;20036;-87
2023/07/14 04:58:11;;;;;;;17.33;15.52;;;14.80;99.90;;;;;;5053477;28;20417;-87
2023/07/14 05:00:38;;;;;;;19.23;14.85;;;14.90;99.90;;;;;;5053196;28;20131;-87
2023/07/14 05:03:05;;;;;;;15.40;12.70;;;15.00;99.90;;;;;;5040247;28;20043;-88
2023/07/14 05:05:31;;;;;;;16.90;13.90;;;14.90;99.90;;;;;;5056858;28;20056;-87
2023/07/14 05:07:57;;;;;;;15.40;12.20;;;15.20;99.90;;;;;;5073407;28;20044;-87
2023/07/14 05:10:25;;;;;;;17.98;15.55;;;15.20;99.90;;;;;;5037867;28;20513;-88
2023/07/14 05:12:52;;;;;;;19.17;13.90;;;15.40;99.90;;;;;;5036188;28;20487;-88
2023/07/14 05:15:19;;;;;;;15.82;13.57;;;15.60;99.90;;;;;;5036843;28;20170;-87
2023/07/14 05:17:46;;;;;;;16.88;14.27;;;15.70;99.90;;;;;;5035826;28;20071;-87
2023/07/14 05:20:14;;;;;;;17.88;14.80;;;15.80;99.90;;;;;;5041837;28;20241;-86
2023/07/14 05:22:42;;;;;;;16.55;13.35;;;16.10;99.90;;;;;;5047888;28;20621;-85
2023/07/14 05:25:08;;;;;;;15.77;14.13;;;16.70;99.90;;;;;;5045415;28;20192;-87
2023/07/14 05:27:35;;;;;;;16.50;14.98;;;17.50;99.90;;;;;;5063392;28;20086;-85
2023/07/14 05:30:03;;;;;;;14.85;10.65;;;18.40;99.90;;;;;;5060465;28;20033;-85
2023/07/14 05:32:29;;;;;;;11.80;8.73;;;19.00;99.90;;;;;;5056753;28;20475;-86
2023/07/14 05:34:55;;;;;;;11.52;7.20;;;19.80;99.90;;;;;;5062685;28;20108;-86
2023/07/14 05:37:21;;;;;;;9.77;7.35;;;20.40;99.90;;;;;;5044337;28;20036;-86
2023/07/14 05:39:46;;;;;;;10.88;7.60;;;20.80;99.90;;;;;;5060883;28;20036;-86
2023/07/14 05:42:12;;;;;;;12.38;8.75;;;21.20;99.90;;;;;;5045564;28;20674;-86
2023/07/14 05:44:38;;;;;;;9.63;7.13;;;21.10;99.90;;;;;;5044498;28;20085;-86
2023/07/14 05:47:04;;;;;;;8.40;6.07;;;21.60;99.90;;;;;;5044554;28;20122;-86
2023/07/14 05:49:30;;;;;;;9.13;6.80;;;21.90;99.90;;;;;;5060860;28;20119;-87
2023/07/14 05:51:56;;;;;;;10.60;6.43;;;22.40;99.90;;;;;;5069260;28;20060;-87
2023/07/14 05:54:22;;;;;;;8.27;5.85;;;22.80;99.90;;;;;;5075749;28;20036;-87
2023/07/14 05:56:48;;;;;;;10.52;5.70;;;23.40;99.90;;;;;;5077614;28;20401;-86
2023/07/14 05:59:14;;;;;;;10.20;6.15;;;23.60;99.90;;;;;;5080675;28;20040;-87
2023/07/14 06:01:40;;;;;;;9.00;6.22;;;24.00;99.90;;;;;;5042337;28;20031;-87
2023/07/14 06:04:05;;;;;;;8.70;5.70;;;24.40;99.90;;;;;;5078676;28;20570;-86
2023/07/14 06:06:32;;;;;;;11.40;6.53;;;24.50;99.90;;;;;;5043800;28;20052;-87
2023/07/14 06:09:01;;;;;;;7.75;5.60;;;25.10;99.90;;;;;;5077344;28;20044;-87
2023/07/14 06:11:27;;;;;;;9.18;4.78;;;25.30;99.90;;;;;;5040956;28;20558;-86
2023/07/14 06:13:53;;;;;;;10.55;5.07;;;25.50;99.90;;;;;;5070895;28;20125;-88
2023/07/14 06:16:21;;;;;;;10.77;6.43;;;25.60;99.90;;;;;;5060500;28;20160;-87
2023/07/14 06:18:51;;;;;;;21.10;19.27;;;25.70;99.90;;;;;;5092276;28;20040;-87
2023/07/14 06:21:17;;;;;;;65.32;61.20;;;26.10;99.90;;;;;;5075376;28;20066;-87
2023/07/14 06:23:44;;;;;;;99.47;93.68;;;27.00;99.90;;;;;;5110506;28;20039;-86
2023/07/14 06:26:10;;;;;;;116.28;109.32;;;27.40;98.00;;;;;;5071551;28;20040;-87
2023/07/14 06:28:36;;;;;;;351.90;327.65;;;27.80;98.20;;;;;;5088859;28;20079;-87
2023/07/14 06:31:05;;;;;;;440.75;407.17;;;27.90;97.50;;;;;;5070599;28;20078;-87
2023/07/14 06:33:31;;;;;;;618.63;569.22;;;27.80;97.50;;;;;;5070968;28;20093;-87
2023/07/14 06:35:57;;;;;;;753.28;688.47;;;27.80;97.70;;;;;;5071445;28;20093;-89
2023/07/14 06:38:28;;;;;;;827.80;752.42;;;28.20;97.30;;;;;;5055580;28;20036;-89
2023/07/14 06:41:02;;;;;;;926.22;835.00;;;28.40;96.80;;;;;;5053020;28;20496;-89
2023/07/14 06:43:30;;;;;;;1044.68;933.17;;;28.90;96.70;;;;;;5052565;28;20032;-89
2023/07/14 06:45:55;;;;;;;1255.38;998.70;;;29.40;95.80;;;;;;5051915;28;20106;-90
2023/07/14 06:48:21;;;;;;;1352.80;999.90;;;29.20;96.50;;;;;;5035580;28;20092;-90
2023/07/14 06:50:47;;;;;;;1312.63;999.90;;;29.40;96.00;;;;;;5052455;28;20043;-90
2023/07/14 06:53:13;;;;;;;1469.05;999.90;;;29.20;95.70;;;;;;5054589;28;20052;-90
2023/07/14 06:55:39;;;;;;;1433.32;999.90;;;29.20;96.10;;;;;;5059004;28;20028;-89
2023/07/14 06:58:06;;;;;;;1640.05;999.90;;;29.50;96.00;;;;;;5073660;28;20048;-90
2023/07/14 07:00:33;;;;;;;1768.20;999.90;;;29.90;95.30;;;;;;5055135;28;20032;-90
2023/07/14 07:03:00;;;;;;;1924.53;999.90;;;29.90;95.30;;;;;;5055207;28;20551;-90
2023/07/14 07:05:26;;;;;;;1716.68;999.90;;;29.90;94.40;;;;;;5071869;28;20130;-90
2023/07/14 07:07:53;;;;;;;1736.88;999.90;;;29.70;94.50;;;;;;5055407;28;20093;-90
2023/07/14 07:10:19;;;;;;;1901.80;999.90;;;29.70;94.80;;;;;;5053981;28;20068;-90
2023/07/14 07:12:45;;;;;;;1810.60;999.90;;;30.10;94.30;;;;;;5035188;28;20106;-90
2023/07/14 07:15:11;;;;;;;1999.90;999.90;;;30.10;94.80;;;;;;5034860;28;20044;-90
2023/07/14 07:17:38;;;;;;;1999.90;999.90;;;30.30;94.40;;;;;;5035207;28;20552;-90
2023/07/14 07:20:08;;;;;;;1999.90;999.90;;;30.50;94.00;;;;;;5034996;28;20032;-90
2023/07/14 07:22:35;;;;;;;1999.90;999.90;;;30.50;94.10;;;;;;5035023;28;20217;-91
2023/07/14 07:25:02;;;;;;;1999.90;999.90;;;30.50;93.60;;;;;;5051926;28;20041;-90
2023/07/14 07:27:28;;;;;;;1999.90;999.90;;;30.10;93.80;;;;;;5051882;28;20041;-91
2023/07/14 07:29:54;;;;;;;1999.90;999.90;;;30.30;94.00;;;;;;5034713;28;20029;-90
2023/07/14 07:32:20;;;;;;;1999.90;999.90;;;30.70;93.60;;;;;;5051789;28;20131;-89
2023/07/14 07:34:46;;;;;;;1999.90;999.90;;;30.40;93.90;;;;;;5034732;28;20036;-90
2023/07/14 07:37:12;;;;;;;1999.90;999.90;;;30.60;94.00;;;;;;5051343;28;20391;-90
2023/07/14 07:39:38;;;;;;;1999.90;999.90;;;30.50;93.10;;;;;;5069723;28;20036;-90
2023/07/14 07:42:06;;;;;;;1999.90;999.90;;;30.40;92.70;;;;;;5058361;28;20043;-90
2023/07/14 07:44:32;;;;;;;1999.90;999.90;;;29.90;93.10;;;;;;5058763;28;20040;-90
2023/07/14 07:46:58;;;;;;;1999.90;999.90;;;30.20;93.10;;;;;;5075705;28;20109;-89
2023/07/14 07:49:24;;;;;;;1999.90;999.90;;;30.10;93.50;;;;;;5058502;28;20492;-90
2023/07/14 07:51:50;;;;;;;1999.90;999.90;;;29.60;93.00;;;;;;5075245;28;20051;-89
2023/07/14 07:54:15;;;;;;;1999.90;999.90;;;29.60;94.00;;;;;;5059338;28;20028;-89
2023/07/14 07:56:42;;;;;;;1999.90;999.90;;;30.00;93.50;;;;;;5054905;28;20110;-90
2023/07/14 07:59:15;;;;;;;1999.90;999.90;;;29.60;93.40;;;;;;5056302;28;20049;-90
2023/07/14 08:01:42;;;;;;;1999.90;999.90;;;29.60;94.00;;;;;;5055194;28;20040;-90
2023/07/14 08:04:09;;;;;;;1999.90;999.90;;;30.20;93.60;;;;;;5055222;28;20041;-89
2023/07/14 08:06:36;;;;;;;1999.90;999.90;;;30.50;93.30;;;;;;5037993;28;20085;-89
2023/07/14 08:09:04;;;;;;;1999.90;999.90;;;29.60;93.20;;;;;;5070327;28;20063;-89
2023/07/14 08:11:30;;;;;;;1999.90;999.90;;;29.60;93.50;;;;;;5057944;28;20159;-89
2023/07/14 08:13:58;;;;;;;1999.90;999.90;;;29.30;93.40;;;;;;5058801;28;20032;-89
2023/07/14 08:16:25;;;;;;;1999.90;999.90;;;28.90;93.60;;;;;;5058038;28;20043;-89
2023/07/14 08:18:51;;;;;;;1867.78;999.90;;;28.30;93.90;;;;;;5058313;28;20541;-89
2023/07/14 08:21:17;;;;;;;1738.15;999.90;;;27.40;94.00;;;;;;5074848;28;20055;-89
2023/07/14 08:23:43;;;;;;;1612.95;999.90;;;26.90;94.00;;;;;;5059482;28;20048;-89
2023/07/14 08:26:09;;;;;;;1322.03;999.90;;;26.20;95.10;;;;;;5054102;28;20130;-89
2023/07/14 08:28:35;;;;;;;1470.15;999.90;;;26.30;94.50;;;;;;5037650;28;20056;-89
2023/07/14 08:31:05;;;;;;;1304.93;999.90;;;26.10;94.70;;;;;;5054309;28;20044;-88
2023/07/14 08:33:31;;;;;;;1042.05;939.15;;;26.50;95.00;;;;;;5054348;28;20039;-90
2023/07/14 08:36:00;;;;;;;1111.18;990.47;;;27.60;94.40;;;;;;5038650;28;20040;-90
2023/07/14 08:38:32;;;;;;;1140.20;997.60;;;27.60;93.70;;;;;;5073926;28;20115;-89
2023/07/14 08:41:17;;;;;;;;;;;28.50;93.70;;;;;;5077415;28;20036;-89
2023/07/14 08:44:04;;;;;;;1801.70;999.90;;;29.20;93.10;;;;;;5062365;28;19923;-89
2023/07/14 08:47:15;;;;;;;1965.75;999.90;;;30.00;92.90;;;;;;5057664;28;20089;-89
2023/07/14 08:49:50;;;;;;;1999.90;999.90;;;30.00;91.60;;;;;;5074326;28;20226;-90
2023/07/14 08:52:24;;;;;;;1999.90;999.90;;;29.50;91.80;;;;;;5074822;28;20075;-90
2023/07/14 08:55:01;;;;;;;1999.90;999.90;;;28.30;92.80;;;;;;5058562;28;20435;-89
2023/07/14 08:57:28;;;;;;;1999.90;999.90;;;28.50;92.50;;;;;;5076733;28;20075;-88
2023/07/14 09:00:03;;;;;;;1999.90;999.90;;;27.90;92.50;;;;;;5076262;28;20050;-90
2023/07/14 09:02:47;;;;;;;1999.90;999.90;;;27.90;92.60;;;;;;5075645;28;20042;-89
2023/07/14 09:05:23;;;;;;;1999.90;999.90;;;28.00;92.80;;;;;;5074624;28;20067;-91
2023/07/14 09:07:49;;;;;;;1886.22;999.90;;;27.50;91.90;;;;;;5062297;28;20483;-90
2023/07/14 09:10:15;;;;;;;1698.57;999.90;;;27.50;93.40;;;;;;5039951;28;20047;-91
2023/07/14 09:13:08;;;;;;;1907.50;999.90;;;27.40;92.60;;;;;;5057958;28;20682;-89
2023/07/14 09:15:34;;;;;;;1876.55;999.90;;;27.40;93.20;;;;;;5075182;28;20111;-88
2023/07/14 09:18:09;;;;;;;1720.47;999.90;;;27.40;93.40;;;;;;5057660;28;20051;-88
2023/07/14 09:20:54;;;;;;;1911.43;999.90;;;27.50;93.20;;;;;;5055743;28;20048;-87
2023/07/14 09:24:01;;;;;;;1876.57;999.90;;;27.60;92.30;;;;;;5055011;28;20033;-95
2023/07/14 09:26:36;;;;;;;1445.05;999.90;;;26.90;92.50;;;;;;5038985;28;20051;-86
2023/07/14 09:29:13;;;;;;;1570.70;999.90;;;26.80;93.30;;;;;;5070756;28;20052;-87
2023/07/14 09:31:41;;;;;;;1563.07;999.90;;;27.40;94.30;;;;;;5052221;28;20036;-86
2023/07/14 09:34:25;;;;;;;1735.07;999.90;;;28.10;93.30;;;;;;5037584;28;20070;-87
2023/07/14 09:36:53;;;;;;;1994.57;999.90;;;28.60;92.00;;;;;;5037293;28;20048;-86
2023/07/14 09:39:42;;;;;;;1999.90;999.90;;;28.50;93.00;;;;;;5037023;28;20068;-87
2023/07/14 09:42:24;;;;;;;1910.50;999.90;;;28.50;92.60;;;;;;5052912;28;20051;-86
2023/07/14 09:44:50;;;;;;;1893.10;999.90;;;28.60;92.30;;;;;;5035549;28;20047;-87
2023/07/14 09:47:17;;;;;;;1999.90;999.90;;;28.70;92.70;;;;;;5036433;28;20041;-87
2023/07/14 09:49:48;;;;;;;1999.90;999.90;;;28.60;92.20;;;;;;5071350;28;20174;-86
2023/07/14 09:52:23;;;;;;;1999.90;999.90;;;28.20;92.70;;;;;;5036927;28;20398;-86
2023/07/14 09:54:59;;;;;;;1780.90;999.90;;;27.80;92.30;;;;;;5036205;28;20045;-86
2023/07/14 09:57:34;;;;;;;1696.13;999.90;;;27.40;92.40;;;;;;5053372;28;20060;-86
2023/07/14 10:00:14;;;;;;;1695.22;999.90;;;26.90;92.50;;;;;;5054066;28;20556;-87
2023/07/14 10:02:40;;;;;;;1497.47;999.90;;;26.70;92.60;;;;;;5053379;28;20361;-86
2023/07/14 10:05:47;;;;;;;1398.53;999.90;;;27.00;93.30;;;;;;5037323;28;20044;-88
2023/07/14 10:08:28;;;;;;;1398.60;999.90;;;26.90;93.10;;;;;;4938226;28;20046;-87
2023/07/14 10:11:12;;;;;;;1383.70;999.90;;;27.30;93.00;;;;;;4937924;28;20034;-86
2023/07/14 10:13:37;;;;;;;1718.68;999.90;;;27.40;93.20;;;;;;4969233;28;20125;-87
2023/07/14 10:16:14;;;;;;;1537.57;999.90;;;27.60;92.70;;;;;;4952511;28;20129;-86
2023/07/14 10:18:54;;;;;;;1613.68;999.90;;;27.80;92.50;;;;;;4953882;28;20158;-87
2023/07/14 10:21:33;;;;;;;1524.28;999.90;;;28.10;92.90;;;;;;4950624;28;20049;-87
2023/07/14 10:24:14;;;;;;;1403.65;999.90;;;28.00;91.70;;;;;;4972066;28;20053;-87
2023/07/14 10:26:48;;;;;;;1575.78;999.90;;;27.80;91.80;;;;;;4972798;28;20074;-88
2023/07/14 10:29:19;;;;;;;1568.15;999.90;;;27.70;92.70;;;;;;4971920;28;20045;-87
2023/07/14 10:31:52;;;;;;;1377.45;999.90;;;27.70;93.00;;;;;;4972913;28;20130;-87
2023/07/14 10:34:26;;;;;;;1296.97;999.90;;;27.90;92.50;;;;;;4972443;28;20034;-87
2023/07/14 10:36:57;;;;;;;1394.30;999.90;;;28.00;91.90;;;;;;4972834;28;20046;-87
2023/07/14 10:39:48;;;;;;;1433.35;999.90;;;28.10;92.50;;;;;;4990543;28;20084;-87
2023/07/14 10:42:20;;;;;;;1590.35;999.90;;;28.40;92.50;;;;;;4973195;28;20046;-87
2023/07/14 10:44:46;;;;;;;1769.60;999.90;;;27.90;91.70;;;;;;5035890;28;20083;-87
2023/07/14 10:47:18;;;;;;;1356.68;999.90;;;27.40;92.80;;;;;;5073235;28;20072;-87
2023/07/14 10:49:51;;;;;;;1418.85;999.90;;;27.70;92.90;;;;;;5067178;28;20036;-86
2023/07/14 10:52:35;;;;;;;1763.93;999.90;;;28.10;92.20;;;;;;5052612;28;20032;-87
2023/07/14 10:55:29;;;;;;;1530.68;999.90;;;28.10;92.60;;;;;;5036987;28;20059;-87
2023/07/14 10:58:03;;;;;;;1623.25;999.90;;;27.70;92.10;;;;;;5043495;28;20048;-87
2023/07/14 11:00:46;;;;;;;1383.25;999.90;;;27.40;92.60;;;;;;5035856;28;20474;-87
2023/07/14 11:03:42;;;;;;;1155.88;994.50;;;27.20;92.00;;;;;;5037119;28;20037;-86
2023/07/14 11:06:17;;;;;;;1215.65;996.92;;;27.10;93.00;;;;;;5054288;28;20049;-87
2023/07/14 11:08:53;;;;;;;1125.32;986.00;;;26.90;92.70;;;;;;5037567;28;20052;-86
2023/07/14 11:11:36;;;;;;;1087.03;964.10;;;27.20;93.50;;;;;;5036723;28;20039;-86
2023/07/14 11:14:11;;;;;;;;;;;27.20;92.60;;;;;;5052872;28;20558;-86
2023/07/14 11:16:48;;;;;;;1085.25;966.60;;;27.00;92.20;;;;;;5070483;28;20022;-86
2023/07/14 11:19:43;;;;;;;1019.15;919.05;;;26.50;93.40;;;;;;5071411;28;20064;-87
2023/07/14 11:22:21;;;;;;;961.35;875.42;;;26.60;93.60;;;;;;5053080;28;20032;-88
2023/07/14 11:25:07;;;;;;;916.63;839.05;;;26.30;93.60;;;;;;5036768;28;20441;-88
2023/07/14 11:27:37;;;;;;;925.90;847.08;;;26.20;94.10;;;;;;5053098;28;20048;-87
2023/07/14 11:30:26;;;;;;;886.78;814.28;;;26.30;93.90;;;;;;5053448;28;20445;-88
2023/07/14 11:33:03;;;;;;;901.17;825.03;;;26.40;93.70;;;;;;5036855;28;20072;-87
2023/07/14 11:35:44;;;;;;;909.10;831.33;;;26.50;93.90;;;;;;5035264;28;20433;-88
2023/07/14 11:38:12;;;;;;;947.97;864.20;;;26.60;93.90;;;;;;5033766;28;20071;-88
2023/07/14 11:40:41;;;;;;;1035.32;932.03;;;27.10;93.60;;;;;;5050661;28;20044;-87
2023/07/14 11:43:14;;;;;;;1085.00;969.08;;;27.60;93.50;;;;;;5050503;28;20044;-88
2023/07/14 11:45:41;;;;;;;1110.22;986.13;;;27.60;93.00;;;;;;5050340;28;20299;-87
2023/07/14 11:48:25;;;;;;;1105.05;985.00;;;27.70;92.70;;;;;;5049879;28;20050;-88
2023/07/14 11:51:12;;;;;;;1159.35;992.17;;;27.50;92.50;;;;;;5058868;28;20045;-88
2023/07/14 11:53:41;;;;;;;1104.40;982.30;;;27.40;92.60;;;;;;5067111;28;20494;-88
2023/07/14 11:56:25;;;;;;;1078.38;965.47;;;27.10;93.00;;;;;;5050115;28;20032;-88
2023/07/14 11:59:05;;;;;;;1114.22;980.15;;;27.40;92.80;;;;;;5050664;28;20102;-88
2023/07/14 12:01:32;;;;;;;1087.10;968.40;;;27.50;93.30;;;;;;5067349;28;20036;-88
2023/07/14 12:04:32;;;;;;;1099.60;978.28;;;27.30;93.10;;;;;;5049639;28;20123;-88
2023/07/14 12:07:12;;;;;;;1035.35;932.63;;;27.10;93.10;;;;;;5033695;28;20052;-87
2023/07/14 12:09:57;;;;;;;1059.00;948.80;;;27.10;93.30;;;;;;5050125;28;20041;-86
2023/07/14 12:12:23;;;;;;;1080.97;965.20;;;27.20;93.70;;;;;;5050357;28;20037;-88
2023/07/14 12:14:50;;;;;;;1189.30;995.25;;;27.20;92.00;;;;;;5033238;28;20104;-88
2023/07/14 12:17:38;;;;;;;1127.82;974.50;;;27.30;92.90;;;;;;5049868;28;20557;-88
2023/07/14 12:20:42;;;;;;;1273.05;999.90;;;27.40;92.70;;;;;;5059014;28;20075;-88
2023/07/14 12:23:13;;;;;;;1183.90;998.63;;;27.50;93.00;;;;;;5052991;28;20079;-88
2023/07/14 12:25:44;;;;;;;1337.38;999.90;;;27.50;93.20;;;;;;5053587;28;20044;-88
2023/07/14 12:28:23;;;;;;;1376.95;999.90;;;27.80;93.10;;;;;;5057101;28;20101;-89
2023/07/14 12:30:51;;;;;;;1237.35;999.90;;;27.50;92.20;;;;;;5056757;28;20473;-88
2023/07/14 12:33:19;;;;;;;1175.05;995.50;;;27.40;93.00;;;;;;5091081;28;20398;-88
2023/07/14 12:35:45;;;;;;;1078.43;961.58;;;27.20;93.00;;;;;;5039203;28;20497;-87